Terminal Aerodrome Forecast
Issued by NWS Des Moines, IA

Home | Current Version | Previous Version | Text Only | Print | Product List | Glossary On
Versions: 1 2 3 4 5 6 7 8 9 10 11 12 13 14 15 16 17 18 19 20 21 22 23 24 25 26 27 28 29 30 31 32 33 34 35 36 37 38 39 40
000
FTUS43 KDMX 011318 AAA
TAFALO
TAF AMD
KALO 011318Z 0113/0212 35005KT 2SM BR OVC008
     FM011500 36007KT P6SM OVC012
     FM012000 03006KT P6SM SCT015 OVC025
     FM020600 VRB03KT 3SM BR OVC015=

USA.gov is the U.S. government's official web portal to all federal, state and local government web resources and services.